Time;durP1;ratioP1;P1;durP2;ratioP2;P2;SDS_P1;SDS_P2;PMS_P1;PMS_P2;Temp;Humidity;BMP_temperature;BMP_pressure;BME280_temperature;BME280_humidity;BME280_pressure;Samples;Min_cycle;Max_cycle;Signal;HPM_P1;HPM_P2
2023/12/16 00:00:44;;;;;;;3.63;2.57;;;;;7.50;103256.00;;;;5045231;28;20241;-73
2023/12/16 00:03:30;;;;;;;7.13;2.60;;;;;7.50;103255.00;;;;5043195;28;20235;-73
2023/12/16 00:06:19;;;;;;;7.73;2.70;;;;;7.50;103246.00;;;;5043576;28;20235;-73
2023/12/16 00:09:07;;;;;;;5.50;2.80;;;;;7.50;103247.00;;;;5044939;28;20255;-73
2023/12/16 00:11:54;;;;;;;7.00;3.07;;;;;7.40;103253.00;;;;5037389;28;20287;-72
2023/12/16 00:14:41;;;;;;;3.80;2.90;;;;;7.40;103244.00;;;;5039088;28;20318;-74
2023/12/16 00:17:27;;;;;;;12.83;2.60;;;;;7.40;103249.00;;;;5049391;28;20226;-72
2023/12/16 00:20:14;;;;;;;6.90;4.07;;;;;7.40;103247.00;;;;5044228;28;20637;-72
2023/12/16 00:23:02;;;;;;;6.87;2.73;;;;;7.50;103241.00;;;;5045234;28;20242;-72
2023/12/16 00:25:50;;;;;;;4.40;2.53;;;;;7.50;103231.00;;;;5038805;28;20363;-73
2023/12/16 00:28:37;;;;;;;5.03;3.10;;;;;7.40;103230.00;;;;5040875;28;20237;-74
2023/12/16 00:31:23;;;;;;;8.90;2.80;;;;;7.40;103234.00;;;;5044306;28;20311;-74
2023/12/16 00:34:11;;;;;;;9.43;3.20;;;;;7.40;103233.00;;;;5044061;28;20238;-71
2023/12/16 00:36:57;;;;;;;7.17;4.03;;;;;7.40;103242.00;;;;5040429;28;20235;-71
2023/12/16 00:39:43;;;;;;;7.67;3.57;;;;;7.40;103250.00;;;;5040665;28;20998;-72
2023/12/16 00:42:31;;;;;;;5.60;3.10;;;;;7.50;103243.00;;;;5036781;28;20238;-72
2023/12/16 00:45:18;;;;;;;12.97;4.20;;;;;7.40;103244.00;;;;5041229;28;20305;-72
2023/12/16 00:48:07;;;;;;;11.93;3.50;;;;;7.40;103240.00;;;;5045031;28;20723;-73
2023/12/16 00:50:54;;;;;;;4.27;3.40;;;;;7.40;103247.00;;;;5042881;28;20235;-72
2023/12/16 00:53:41;;;;;;;6.63;3.57;;;;;7.50;103241.00;;;;5032455;28;20229;-72
2023/12/16 00:56:27;;;;;;;6.83;3.67;;;;;7.40;103241.00;;;;5038720;28;20729;-75
2023/12/16 00:59:15;;;;;;;11.83;4.13;;;;;7.50;103235.00;;;;5044310;28;20225;-73
2023/12/16 01:02:01;;;;;;;6.10;4.00;;;;;7.50;103244.00;;;;5036048;28;20234;-74
2023/12/16 01:04:47;;;;;;;6.53;3.73;;;;;7.40;103246.00;;;;5037684;28;20275;-75
2023/12/16 01:07:33;;;;;;;6.33;3.93;;;;;7.40;103248.00;;;;5041426;28;20230;-74
2023/12/16 01:10:20;;;;;;;6.03;3.53;;;;;7.50;103247.00;;;;5043661;28;20235;-74
2023/12/16 01:13:06;;;;;;;8.23;3.60;;;;;7.50;103253.00;;;;5038643;28;20253;-73
2023/12/16 01:15:54;;;;;;;14.57;4.10;;;;;7.50;103262.00;;;;5033160;28;20304;-73
2023/12/16 01:18:41;;;;;;;9.73;4.23;;;;;7.50;103265.00;;;;5042946;28;20234;-76
2023/12/16 01:21:27;;;;;;;7.00;3.57;;;;;7.50;103262.00;;;;5048704;28;20251;-74
2023/12/16 01:24:13;;;;;;;8.63;3.40;;;;;7.50;103267.00;;;;5037762;28;20234;-75
2023/12/16 01:27:00;;;;;;;6.50;3.47;;;;;7.50;103268.00;;;;5042561;28;20409;-74
2023/12/16 01:29:46;;;;;;;6.00;3.67;;;;;7.40;103266.00;;;;5037034;28;20254;-75
2023/12/16 01:32:34;;;;;;;13.33;3.80;;;;;7.40;103263.00;;;;5046748;28;20235;-75
2023/12/16 01:35:21;;;;;;;14.10;4.30;;;;;7.50;103249.00;;;;5047951;28;20602;-74
2023/12/16 01:38:07;;;;;;;7.37;3.37;;;;;7.40;103260.00;;;;5037507;28;20241;-74
2023/12/16 01:40:54;;;;;;;10.87;4.13;;;;;7.40;103254.00;;;;5042644;28;20264;-74
2023/12/16 01:43:41;;;;;;;14.70;4.33;;;;;7.40;103255.00;;;;5045243;28;20959;-75
2023/12/16 01:46:27;;;;;;;20.40;4.63;;;;;7.50;103241.00;;;;5039062;28;20758;-75
2023/12/16 01:49:15;;;;;;;9.13;4.50;;;;;7.50;103251.00;;;;5042788;28;20233;-74
2023/12/16 01:52:02;;;;;;;13.57;4.33;;;;;7.50;103260.00;;;;5042554;28;20217;-74
2023/12/16 01:54:50;;;;;;;11.60;4.73;;;;;7.50;103255.00;;;;5045586;28;20731;-75
2023/12/16 01:57:37;;;;;;;5.40;3.67;;;;;7.50;103257.00;;;;5051094;28;20759;-74
2023/12/16 02:00:24;;;;;;;9.10;3.73;;;;;7.50;103259.00;;;;5050127;28;20233;-75
2023/12/16 02:03:14;;;;;;;10.83;4.17;;;;;7.50;103258.00;;;;5039480;28;20241;-75
2023/12/16 02:06:02;;;;;;;12.40;3.70;;;;;7.50;103245.00;;;;5044133;28;20234;-75
2023/12/16 02:08:48;;;;;;;4.87;2.93;;;;;7.50;103249.00;;;;5040753;28;20234;-73
2023/12/16 02:11:35;;;;;;;8.47;3.97;;;;;7.40;103244.00;;;;5032805;28;20360;-74
2023/12/16 02:14:22;;;;;;;11.47;3.37;;;;;7.50;103252.00;;;;5035704;28;20234;-74
2023/12/16 02:17:08;;;;;;;12.57;3.90;;;;;7.50;103259.00;;;;5034491;28;20312;-77
2023/12/16 02:19:55;;;;;;;9.33;4.13;;;;;7.50;103281.00;;;;5039255;28;20225;-76
2023/12/16 02:22:46;;;;;;;8.80;3.93;;;;;7.60;103272.00;;;;5042105;28;20936;-75
2023/12/16 02:25:34;;;;;;;12.13;3.57;;;;;7.50;103268.00;;;;5049996;28;20306;-75
2023/12/16 02:28:20;;;;;;;5.07;3.33;;;;;7.60;103259.00;;;;5048416;28;20328;-74
2023/12/16 02:31:07;;;;;;;12.10;4.07;;;;;7.60;103276.00;;;;5041568;28;20232;-74
2023/12/16 02:33:53;;;;;;;8.67;4.23;;;;;7.60;103255.00;;;;5042755;28;20222;-75
2023/12/16 02:36:41;;;;;;;6.03;3.63;;;;;7.60;103251.00;;;;5046137;28;21029;-75
2023/12/16 02:39:27;;;;;;;7.23;3.23;;;;;7.50;103242.00;;;;5049320;28;20622;-74
2023/12/16 02:42:15;;;;;;;10.63;3.80;;;;;7.50;103244.00;;;;5041649;28;20370;-74
2023/12/16 02:45:01;;;;;;;10.43;3.23;;;;;7.60;103253.00;;;;5039837;28;20231;-72
2023/12/16 02:47:49;;;;;;;10.63;3.27;;;;;7.50;103258.00;;;;5037925;28;20229;-75
2023/12/16 02:50:35;;;;;;;7.77;4.37;;;;;7.60;103256.00;;;;5038683;28;20742;-75
2023/12/16 02:53:22;;;;;;;9.50;4.10;;;;;7.60;103247.00;;;;5045648;28;20260;-77
2023/12/16 02:56:09;;;;;;;11.70;3.47;;;;;7.70;103238.00;;;;5042363;28;20241;-74
2023/12/16 02:58:56;;;;;;;14.27;3.13;;;;;7.60;103235.00;;;;5041724;28;20249;-74
2023/12/16 03:01:43;;;;;;;8.03;3.67;;;;;7.60;103233.00;;;;5045423;28;20245;-74
2023/12/16 03:04:30;;;;;;;9.47;3.73;;;;;7.60;103233.00;;;;5044273;28;20635;-75
2023/12/16 03:07:16;;;;;;;9.63;3.83;;;;;7.60;103228.00;;;;5047144;28;20245;-74
2023/12/16 03:10:03;;;;;;;11.00;3.87;;;;;7.60;103229.00;;;;5047237;28;20290;-75
2023/12/16 03:12:51;;;;;;;10.63;3.90;;;;;7.60;103228.00;;;;5045739;28;20223;-75
2023/12/16 03:15:39;;;;;;;7.57;2.87;;;;;7.60;103228.00;;;;5045937;28;20379;-75
2023/12/16 03:18:28;;;;;;;11.30;3.30;;;;;7.60;103230.00;;;;5043293;28;20252;-73
2023/12/16 03:21:14;;;;;;;7.27;3.97;;;;;7.70;103232.00;;;;5041308;28;20234;-75
2023/12/16 03:24:00;;;;;;;4.87;3.40;;;;;7.70;103230.00;;;;5046159;28;20727;-75
2023/12/16 03:26:47;;;;;;;18.57;4.10;;;;;7.70;103229.00;;;;5039273;28;20284;-75
2023/12/16 03:29:33;;;;;;;7.60;3.17;;;;;7.70;103228.00;;;;5033494;28;20240;-74
2023/12/16 03:32:20;;;;;;;5.80;3.30;;;;;7.60;103235.00;;;;5042023;28;20285;-73
2023/12/16 03:35:08;;;;;;;4.57;2.83;;;;;7.70;103227.00;;;;5042723;28;20234;-74
2023/12/16 03:37:54;;;;;;;6.10;3.10;;;;;7.80;103229.00;;;;5045768;28;20352;-74
2023/12/16 03:40:40;;;;;;;8.10;3.40;;;;;7.70;103234.00;;;;5041170;28;20304;-75
2023/12/16 03:43:27;;;;;;;8.80;3.23;;;;;7.60;103230.00;;;;5044739;28;20239;-74
2023/12/16 03:46:13;;;;;;;8.17;3.40;;;;;7.60;103238.00;;;;5042719;28;20233;-75
2023/12/16 03:49:01;;;;;;;8.30;2.90;;;;;7.70;103233.00;;;;5037175;28;20597;-71
2023/12/16 03:51:48;;;;;;;8.20;3.57;;;;;7.60;103235.00;;;;5043383;28;20312;-75
2023/12/16 03:54:35;;;;;;;9.53;3.77;;;;;7.50;103226.00;;;;5044892;28;20420;-75
2023/12/16 03:57:21;;;;;;;9.73;2.90;;;;;7.50;103217.00;;;;5038866;28;20231;-73
2023/12/16 04:00:09;;;;;;;5.30;2.93;;;;;7.60;103217.00;;;;5033033;28;20287;-74
2023/12/16 04:02:56;;;;;;;5.63;2.43;;;;;7.60;103222.00;;;;5036947;28;20241;-76
2023/12/16 04:05:44;;;;;;;2.93;2.10;;;;;7.60;103226.00;;;;5037241;28;20230;-74
2023/12/16 04:08:31;;;;;;;6.20;3.33;;;;;7.40;103219.00;;;;5045272;28;20363;-75
2023/12/16 04:11:17;;;;;;;8.70;2.80;;;;;7.40;103222.00;;;;5035235;28;20234;-75
2023/12/16 04:14:03;;;;;;;7.80;2.63;;;;;7.50;103216.00;;;;5045840;28;20395;-74
2023/12/16 04:16:50;;;;;;;5.50;2.60;;;;;7.40;103223.00;;;;5045694;28;20722;-75
2023/12/16 04:19:37;;;;;;;7.47;2.93;;;;;7.50;103231.00;;;;5041665;28;20253;-74
2023/12/16 04:22:26;;;;;;;6.93;2.77;;;;;7.40;103224.00;;;;5054614;28;20231;-74
2023/12/16 04:25:12;;;;;;;9.10;2.93;;;;;7.50;103226.00;;;;5045071;28;20249;-75
2023/12/16 04:27:59;;;;;;;6.60;3.70;;;;;7.60;103234.00;;;;5036175;28;20226;-74
2023/12/16 04:30:45;;;;;;;9.93;2.90;;;;;7.50;103233.00;;;;5039010;28;20235;-74
2023/12/16 04:33:32;;;;;;;3.80;2.50;;;;;7.50;103232.00;;;;5039767;28;20235;-74
2023/12/16 04:36:18;;;;;;;13.73;3.43;;;;;7.50;103237.00;;;;5038300;28;20251;-74
2023/12/16 04:39:07;;;;;;;3.87;2.37;;;;;7.40;103225.00;;;;5043989;28;20262;-73
2023/12/16 04:41:54;;;;;;;6.87;2.80;;;;;7.30;103235.00;;;;5042147;28;20230;-75
2023/12/16 04:44:40;;;;;;;9.90;3.13;;;;;7.20;103231.00;;;;5044774;28;20238;-75
2023/12/16 04:47:26;;;;;;;3.97;2.83;;;;;7.20;103241.00;;;;5040207;28;20299;-75
2023/12/16 04:50:14;;;;;;;4.67;2.60;;;;;7.30;103231.00;;;;5043743;28;20777;-74
2023/12/16 04:53:00;;;;;;;8.90;2.57;;;;;7.30;103237.00;;;;5045278;28;20689;-73
2023/12/16 04:55:47;;;;;;;6.97;2.83;;;;;7.30;103239.00;;;;5037715;28;20229;-75
2023/12/16 04:58:38;;;;;;;4.70;3.23;;;;;7.30;103243.00;;;;5046123;28;20222;-73
2023/12/16 05:01:25;;;;;;;9.33;2.73;;;;;7.30;103244.00;;;;5045825;28;20229;-74
2023/12/16 05:04:11;;;;;;;8.97;3.47;;;;;7.30;103250.00;;;;5038105;28;20237;-72
2023/12/16 05:06:58;;;;;;;7.93;2.87;;;;;7.30;103247.00;;;;5044790;28;20273;-75
2023/12/16 05:09:44;;;;;;;7.50;2.70;;;;;7.30;103233.00;;;;5042051;28;20227;-74
2023/12/16 05:12:32;;;;;;;4.40;2.63;;;;;7.30;103238.00;;;;5037963;28;20304;-75
2023/12/16 05:15:21;;;;;;;9.33;3.03;;;;;7.40;103241.00;;;;5037498;28;20304;-75
2023/12/16 05:18:08;;;;;;;7.27;2.27;;;;;7.40;103257.00;;;;5036386;28;20229;-75
2023/12/16 05:20:55;;;;;;;10.00;3.07;;;;;7.30;103265.00;;;;5040668;28;20231;-74
2023/12/16 05:23:41;;;;;;;7.53;2.93;;;;;7.30;103246.00;;;;5045475;28;20240;-74
2023/12/16 05:26:28;;;;;;;4.77;2.53;;;;;7.30;103256.00;;;;5037347;28;20233;-73
2023/12/16 05:29:15;;;;;;;4.87;2.43;;;;;7.40;103253.00;;;;5041894;28;20303;-75
2023/12/16 05:32:02;;;;;;;5.80;2.70;;;;;7.40;103256.00;;;;5040681;28;20808;-74
2023/12/16 05:34:48;;;;;;;11.13;2.27;;;;;7.40;103263.00;;;;5042221;28;20368;-74
2023/12/16 05:37:35;;;;;;;9.03;2.70;;;;;7.40;103263.00;;;;5039825;28;20751;-75
2023/12/16 05:40:22;;;;;;;6.93;2.53;;;;;7.30;103257.00;;;;5049561;28;20342;-74
2023/12/16 05:43:08;;;;;;;6.43;2.50;;;;;7.40;103258.00;;;;5038889;28;20229;-75
2023/12/16 05:45:56;;;;;;;9.50;3.00;;;;;7.40;103250.00;;;;5040203;28;20296;-74
2023/12/16 05:48:42;;;;;;;4.40;2.30;;;;;7.40;103248.00;;;;5044094;28;20229;-75
2023/12/16 05:51:29;;;;;;;8.07;2.83;;;;;7.30;103263.00;;;;5043992;28;20247;-75
2023/12/16 05:54:16;;;;;;;6.07;3.00;;;;;7.40;103266.00;;;;5037793;28;20253;-75
2023/12/16 05:57:02;;;;;;;6.40;3.10;;;;;7.30;103259.00;;;;5044866;28;20757;-74
2023/12/16 05:59:49;;;;;;;7.60;2.47;;;;;7.30;103254.00;;;;5043689;28;20615;-74
2023/12/16 06:02:37;;;;;;;6.70;2.50;;;;;7.30;103238.00;;;;5048202;28;20236;-75
2023/12/16 06:05:23;;;;;;;6.57;2.00;;;;;7.30;103231.00;;;;5046958;28;20246;-73
2023/12/16 06:08:09;;;;;;;6.43;3.20;;;;;7.30;103236.00;;;;5052483;28;20319;-74
2023/12/16 06:10:56;;;;;;;4.80;2.60;;;;;7.30;103237.00;;;;5046479;28;20332;-75
2023/12/16 06:13:43;;;;;;;7.70;2.80;;;;;7.20;103232.00;;;;5048973;28;20237;-73
2023/12/16 06:16:30;;;;;;;5.93;2.30;;;;;7.20;103228.00;;;;5049504;28;20238;-77
2023/12/16 06:19:17;;;;;;;4.70;2.27;;;;;7.00;103223.00;;;;5050310;28;20311;-76
2023/12/16 06:22:04;;;;;;;4.10;2.20;;;;;6.90;103231.00;;;;5042746;28;20291;-74
2023/12/16 06:24:51;;;;;;;7.90;2.63;;;;;6.90;103236.00;;;;5046997;28;20234;-75
2023/12/16 06:27:38;;;;;;;3.87;2.53;;;;;6.90;103242.00;;;;5045009;28;20235;-74
2023/12/16 06:30:25;;;;;;;3.90;2.53;;;;;6.90;103244.00;;;;5043906;28;20323;-75
2023/12/16 06:33:11;;;;;;;12.87;3.30;;;;;6.90;103245.00;;;;5042136;28;20223;-75
2023/12/16 06:35:59;;;;;;;5.47;2.67;;;;;6.90;103238.00;;;;5047156;28;20249;-75
2023/12/16 06:38:45;;;;;;;6.90;2.67;;;;;6.90;103247.00;;;;5044863;28;20810;-74
2023/12/16 06:41:32;;;;;;;5.63;2.57;;;;;7.00;103253.00;;;;5048811;28;20609;-75
2023/12/16 06:44:18;;;;;;;10.73;3.60;;;;;7.00;103258.00;;;;5045682;28;20240;-73
2023/12/16 06:47:05;;;;;;;3.43;2.13;;;;;7.00;103264.00;;;;5041664;28;20224;-74
2023/12/16 06:49:53;;;;;;;4.20;2.43;;;;;7.10;103273.00;;;;5045379;28;20326;-75
2023/12/16 06:52:40;;;;;;;10.83;3.07;;;;;7.00;103271.00;;;;5044771;28;20304;-74
2023/12/16 06:55:27;;;;;;;7.50;3.03;;;;;7.10;103271.00;;;;5041664;28;20230;-75
2023/12/16 06:58:13;;;;;;;5.80;2.93;;;;;7.10;103269.00;;;;5036201;28;20608;-75
2023/12/16 07:01:00;;;;;;;6.17;2.87;;;;;7.20;103256.00;;;;5045635;28;20244;-74
2023/12/16 07:03:46;;;;;;;3.30;2.80;;;;;7.30;103282.00;;;;5046024;28;20598;-74
2023/12/16 07:06:33;;;;;;;7.20;3.10;;;;;7.30;103276.00;;;;5047094;28;20236;-75
2023/12/16 07:09:21;;;;;;;7.03;2.80;;;;;7.30;103281.00;;;;5046122;28;20275;-74
2023/12/16 07:12:07;;;;;;;3.03;2.33;;;;;7.30;103277.00;;;;5033294;28;20356;-76
2023/12/16 07:14:54;;;;;;;3.83;2.63;;;;;7.40;103282.00;;;;5053823;28;20236;-74
2023/12/16 07:17:41;;;;;;;9.27;2.73;;;;;7.30;103279.00;;;;5045614;28;20352;-75
2023/12/16 07:20:28;;;;;;;8.20;3.53;;;;;7.30;103279.00;;;;5043994;28;20228;-73
2023/12/16 07:23:14;;;;;;;5.40;3.00;;;;;7.30;103268.00;;;;5047668;28;20308;-75
2023/12/16 07:26:02;;;;;;;7.47;2.43;;;;;7.30;103280.00;;;;5039648;28;20614;-75
2023/12/16 07:28:50;;;;;;;7.77;2.80;;;;;7.30;103289.00;;;;5041102;28;20613;-75
2023/12/16 07:31:37;;;;;;;6.87;2.90;;;;;7.30;103278.00;;;;5036342;28;20846;-75
2023/12/16 07:34:23;;;;;;;13.83;3.57;;;;;7.30;103280.00;;;;5036408;28;20241;-73
2023/12/16 07:37:09;;;;;;;5.33;3.63;;;;;7.20;103294.00;;;;5046139;28;20236;-75
2023/12/16 07:39:56;;;;;;;14.17;3.40;;;;;7.20;103295.00;;;;5046586;28;20225;-76
2023/12/16 07:42:44;;;;;;;3.30;2.67;;;;;7.10;103304.00;;;;5046818;28;20622;-72
2023/12/16 07:45:30;;;;;;;8.07;2.80;;;;;7.10;103300.00;;;;5042238;28;20234;-73
2023/12/16 07:48:17;;;;;;;6.37;2.47;;;;;7.00;103302.00;;;;5039075;28;20226;-75
2023/12/16 07:51:04;;;;;;;6.30;2.80;;;;;7.00;103306.00;;;;5037025;28;20244;-72
2023/12/16 07:53:50;;;;;;;5.27;2.57;;;;;6.90;103294.00;;;;5042381;28;20729;-75
2023/12/16 07:56:39;;;;;;;8.23;2.87;;;;;6.90;103310.00;;;;5044971;28;20260;-74
2023/12/16 07:59:27;;;;;;;4.03;2.37;;;;;6.90;103308.00;;;;5036968;28;20225;-74
2023/12/16 08:02:13;;;;;;;6.37;2.37;;;;;6.90;103315.00;;;;5039114;28;20846;-73
2023/12/16 08:05:00;;;;;;;6.93;2.60;;;;;6.90;103305.00;;;;5034844;28;20237;-74
2023/12/16 08:07:46;;;;;;;8.13;3.03;;;;;6.90;103309.00;;;;5038195;28;20231;-74
2023/12/16 08:10:34;;;;;;;4.70;2.73;;;;;6.90;103310.00;;;;5037615;28;20610;-73
2023/12/16 08:13:20;;;;;;;5.27;2.77;;;;;6.90;103307.00;;;;5037164;28;20602;-75
2023/12/16 08:16:10;;;;;;;7.73;2.77;;;;;7.00;103314.00;;;;5043744;28;21051;-74
2023/12/16 08:18:56;;;;;;;10.27;3.13;;;;;7.10;103315.00;;;;5043156;28;20248;-73
2023/12/16 08:21:43;;;;;;;11.50;2.90;;;;;7.10;103314.00;;;;5044506;28;20243;-74
2023/12/16 08:24:31;;;;;;;9.77;3.40;;;;;7.30;103323.00;;;;5037800;28;20950;-70
2023/12/16 08:27:17;;;;;;;8.23;3.17;;;;;7.50;103317.00;;;;5035181;28;20287;-72
2023/12/16 08:30:05;;;;;;;5.50;3.07;;;;;7.60;103317.00;;;;5042920;28;20318;-70
2023/12/16 08:32:56;;;;;;;9.37;2.93;;;;;7.60;103317.00;;;;5039510;28;20232;-72
2023/12/16 08:35:43;;;;;;;5.73;2.70;;;;;7.70;103318.00;;;;5036595;28;20235;-73
2023/12/16 08:38:32;;;;;;;12.33;2.90;;;;;7.80;103320.00;;;;5040811;28;20238;-72
2023/12/16 08:41:19;;;;;;;10.63;3.43;;;;;7.90;103318.00;;;;5042616;28;20370;-72
2023/12/16 08:44:05;;;;;;;7.30;2.97;;;;;8.00;103315.00;;;;5043086;28;21713;-72
2023/12/16 08:46:52;;;;;;;5.10;2.40;;;;;8.10;103322.00;;;;5036640;28;20238;-73
2023/12/16 08:49:44;;;;;;;9.10;3.40;;;;;8.30;103329.00;;;;5039612;28;20238;-72
2023/12/16 08:52:31;;;;;;;9.37;3.53;;;;;8.30;103326.00;;;;5035524;28;20370;-72
2023/12/16 08:55:18;;;;;;;7.03;3.10;;;;;8.30;103317.00;;;;5036250;28;20256;-72
2023/12/16 08:58:04;;;;;;;5.13;2.63;;;;;8.30;103330.00;;;;5042585;28;20224;-72
2023/12/16 09:00:52;;;;;;;9.83;3.13;;;;;8.30;103331.00;;;;5037699;28;20338;-71
2023/12/16 09:03:42;;;;;;;8.43;2.67;;;;;8.30;103329.00;;;;5036537;28;20232;-71
2023/12/16 09:06:30;;;;;;;8.07;3.00;;;;;8.40;103324.00;;;;5041790;28;20244;-70
2023/12/16 09:09:16;;;;;;;11.07;3.50;;;;;8.30;103331.00;;;;5034082;28;20937;-74
2023/12/16 09:12:02;;;;;;;6.87;2.47;;;;;8.40;103328.00;;;;5041298;28;20375;-72
2023/12/16 09:14:49;;;;;;;4.13;2.17;;;;;8.40;103332.00;;;;5014648;28;20709;-72
2023/12/16 09:17:35;;;;;;;4.53;2.20;;;;;8.40;103330.00;;;;5032652;28;20281;-73
2023/12/16 09:20:21;;;;;;;4.67;2.30;;;;;8.50;103335.00;;;;5036406;28;20226;-73
2023/12/16 09:23:09;;;;;;;8.87;2.43;;;;;8.60;103327.00;;;;5039151;28;20231;-73
2023/12/16 09:25:55;;;;;;;8.47;2.83;;;;;8.60;103321.00;;;;5032861;28;20241;-72
2023/12/16 09:28:41;;;;;;;6.50;3.00;;;;;8.70;103328.00;;;;5043227;28;20293;-73
2023/12/16 09:31:28;;;;;;;3.77;2.07;;;;;8.80;103332.00;;;;5034536;28;20277;-71
2023/12/16 09:34:15;;;;;;;10.20;3.03;;;;;8.80;103341.00;;;;5032063;28;20354;-70
2023/12/16 09:37:01;;;;;;;5.70;2.80;;;;;8.90;103332.00;;;;5049149;28;20831;-72
2023/12/16 09:39:51;;;;;;;8.57;2.60;;;;;9.00;103328.00;;;;5039716;28;20248;-68
2023/12/16 09:42:38;;;;;;;8.07;2.80;;;;;8.90;103340.00;;;;5045200;28;20238;-71
2023/12/16 09:45:25;;;;;;;6.20;3.07;;;;;9.00;103345.00;;;;5034029;28;20224;-73
2023/12/16 09:48:11;;;;;;;5.47;2.67;;;;;9.00;103362.00;;;;5046150;28;20236;-71
2023/12/16 09:50:58;;;;;;;7.93;2.60;;;;;9.20;103354.00;;;;5046724;28;20236;-71
2023/12/16 09:53:45;;;;;;;7.40;2.50;;;;;9.40;103362.00;;;;5046329;28;20225;-71
2023/12/16 09:56:33;;;;;;;5.23;2.50;;;;;9.50;103369.00;;;;5043127;28;20251;-72
2023/12/16 09:59:22;;;;;;;9.77;2.67;;;;;9.50;103362.00;;;;5047383;28;20239;-72
2023/12/16 10:02:16;;;;;;;10.77;2.77;;;;;9.60;103355.00;;;;5044879;28;20232;-71
2023/12/16 10:05:03;;;;;;;7.77;3.00;;;;;9.60;103360.00;;;;5043457;28;20307;-72
2023/12/16 10:07:51;;;;;;;8.43;2.67;;;;;9.70;103353.00;;;;5054283;28;20236;-73
2023/12/16 10:10:37;;;;;;;8.93;2.70;;;;;9.70;103358.00;;;;5026743;28;20241;-71
2023/12/16 10:13:25;;;;;;;8.20;2.77;;;;;9.70;103362.00;;;;5044012;28;20353;-70
2023/12/16 10:16:16;;;;;;;14.60;2.87;;;;;9.80;103358.00;;;;5046531;28;20964;-71
2023/12/16 10:19:03;;;;;;;7.00;2.10;;;;;9.90;103345.00;;;;5036528;28;20237;-73
2023/12/16 10:21:49;;;;;;;7.13;2.70;;;;;10.00;103355.00;;;;5035810;28;20229;-71
2023/12/16 10:24:37;;;;;;;12.47;2.77;;;;;10.10;103342.00;;;;5042284;28;20222;-73
2023/12/16 10:27:24;;;;;;;8.20;2.50;;;;;10.10;103351.00;;;;5047035;28;20233;-74
2023/12/16 10:30:12;;;;;;;8.57;2.07;;;;;10.00;103336.00;;;;5040340;28;20294;-72
2023/12/16 10:33:02;;;;;;;7.70;2.27;;;;;10.00;103338.00;;;;5040887;28;20237;-70
2023/12/16 10:35:48;;;;;;;5.27;2.27;;;;;10.00;103336.00;;;;5046672;28;20236;-71
2023/12/16 10:38:35;;;;;;;9.73;2.17;;;;;10.00;103330.00;;;;5045937;28;20267;-72
2023/12/16 10:41:22;;;;;;;6.83;2.50;;;;;10.00;103335.00;;;;5043357;28;20225;-72
2023/12/16 10:44:08;;;;;;;7.50;2.23;;;;;10.00;103336.00;;;;5042866;28;20965;-72
2023/12/16 10:46:56;;;;;;;12.93;2.90;;;;;10.00;103321.00;;;;5036087;28;20656;-71
2023/12/16 10:49:44;;;;;;;7.47;1.90;;;;;9.90;103329.00;;;;5047278;28;20236;-73
2023/12/16 10:52:35;;;;;;;5.73;2.20;;;;;9.90;103327.00;;;;5038835;28;20229;-71
2023/12/16 10:55:28;;;;;;;10.03;2.70;;;;;9.90;103325.00;;;;5037208;28;20232;-72
2023/12/16 10:58:24;;;;;;;10.50;2.97;;;;;9.80;103323.00;;;;5052991;28;20295;-72
2023/12/16 11:01:17;;;;;;;8.60;2.53;;;;;9.70;103320.00;;;;5046407;28;20311;-71
2023/12/16 11:04:11;;;;;;;3.90;2.47;;;;;9.80;103317.00;;;;5037332;28;20298;-70
2023/12/16 11:07:04;;;;;;;7.57;2.77;;;;;9.90;103315.00;;;;5044068;28;20228;-71
2023/12/16 11:09:50;;;;;;;10.10;2.50;;;;;9.90;103308.00;;;;5040289;28;20229;-73
2023/12/16 11:12:39;;;;;;;10.43;2.87;;;;;9.90;103298.00;;;;5043036;28;20247;-73
2023/12/16 11:15:26;;;;;;;11.43;4.40;;;;;9.90;103306.00;;;;5049252;28;20244;-72
2023/12/16 11:18:16;;;;;;;8.30;3.20;;;;;9.80;103306.00;;;;5044477;28;20310;-70
2023/12/16 11:21:07;;;;;;;8.53;2.83;;;;;9.80;103290.00;;;;5044663;28;20225;-72
2023/12/16 11:23:54;;;;;;;6.77;2.67;;;;;9.80;103294.00;;;;5049306;28;20225;-70
2023/12/16 11:26:41;;;;;;;9.97;3.33;;;;;9.90;103295.00;;;;5041353;28;20233;-68
2023/12/16 11:29:31;;;;;;;5.00;2.70;;;;;9.90;103301.00;;;;5047063;28;20431;-69
2023/12/16 11:32:17;;;;;;;9.10;2.50;;;;;9.90;103288.00;;;;5048126;28;20348;-70
2023/12/16 11:35:07;;;;;;;9.37;3.00;;;;;9.90;103277.00;;;;5040621;28;20520;-74
2023/12/16 11:37:55;;;;;;;9.87;3.13;;;;;9.90;103280.00;;;;5035647;28;20614;-71
2023/12/16 11:40:42;;;;;;;8.07;3.60;;;;;10.00;103282.00;;;;5042501;28;20752;-73
2023/12/16 11:43:47;;;;;;;7.77;3.90;;;;;10.00;103277.00;;;;5043937;28;20602;-72
2023/12/16 11:46:34;;;;;;;8.20;3.10;;;;;9.90;103272.00;;;;5035823;28;20311;-70
2023/12/16 11:49:21;;;;;;;13.07;3.33;;;;;9.90;103274.00;;;;5038067;28;20232;-71
2023/12/16 11:52:07;;;;;;;10.60;3.07;;;;;9.80;103272.00;;;;5044355;28;21278;-71
2023/12/16 11:54:56;;;;;;;11.33;3.43;;;;;9.90;103268.00;;;;5044884;28;20359;-72
2023/12/16 11:57:43;;;;;;;5.87;3.37;;;;;9.80;103270.00;;;;5045794;28;20268;-71
2023/12/16 12:00:30;;;;;;;3.83;3.33;;;;;9.80;103268.00;;;;5038915;28;20255;-71
2023/12/16 12:03:16;;;;;;;8.13;3.00;;;;;9.90;103263.00;;;;5039875;28;20229;-70
2023/12/16 12:06:04;;;;;;;5.53;2.87;;;;;9.90;103255.00;;;;5042333;28;20600;-71
2023/12/16 12:08:51;;;;;;;16.07;3.90;;;;;9.90;103265.00;;;;5041280;28;20310;-71
2023/12/16 12:11:39;;;;;;;11.30;3.00;;;;;10.00;103257.00;;;;5042182;28;20236;-72
2023/12/16 12:14:26;;;;;;;7.07;2.80;;;;;10.00;103251.00;;;;5043992;28;20237;-72
2023/12/16 12:17:12;;;;;;;8.63;3.30;;;;;10.00;103240.00;;;;5042552;28;21497;-72
2023/12/16 12:19:59;;;;;;;9.63;3.53;;;;;10.00;103242.00;;;;5043486;28;20244;-72
2023/12/16 12:22:46;;;;;;;8.27;3.23;;;;;10.00;103237.00;;;;5041958;28;20236;-71
2023/12/16 12:25:33;;;;;;;8.37;3.00;;;;;10.00;103238.00;;;;5037867;28;20275;-74
2023/12/16 12:28:21;;;;;;;11.63;3.10;;;;;10.00;103235.00;;;;5034796;28;20845;-70
2023/12/16 12:31:08;;;;;;;5.70;3.13;;;;;9.90;103222.00;;;;5042180;28;20228;-72
2023/12/16 12:33:55;;;;;;;11.80;3.07;;;;;9.90;103223.00;;;;5043636;28;20228;-70
2023/12/16 12:36:42;;;;;;;10.13;4.07;;;;;10.00;103209.00;;;;5043888;28;20232;-71
2023/12/16 12:39:29;;;;;;;9.00;3.23;;;;;9.90;103195.00;;;;5044088;28;20367;-70
2023/12/16 12:42:15;;;;;;;16.60;3.60;;;;;10.00;103203.00;;;;5043392;28;20308;-70
2023/12/16 12:45:04;;;;;;;6.43;3.80;;;;;9.90;103201.00;;;;5039779;28;20714;-71
2023/12/16 12:47:50;;;;;;;10.90;3.67;;;;;9.90;103195.00;;;;5037812;28;20354;-73
2023/12/16 12:50:37;;;;;;;11.93;3.33;;;;;9.90;103204.00;;;;5036765;28;20248;-72
2023/12/16 12:53:23;;;;;;;10.43;3.17;;;;;9.90;103196.00;;;;5032977;28;20283;-71
2023/12/16 12:56:11;;;;;;;13.20;3.53;;;;;9.90;103181.00;;;;5040119;28;20240;-72
2023/12/16 12:58:59;;;;;;;8.10;4.07;;;;;9.90;103200.00;;;;5036514;28;20731;-75
2023/12/16 13:01:47;;;;;;;6.87;3.43;;;;;9.90;103192.00;;;;5039594;28;20229;-73
2023/12/16 13:04:33;;;;;;;7.93;3.37;;;;;9.80;103213.00;;;;5043400;28;20263;-73
2023/12/16 13:07:32;;;;;;;10.73;4.40;;;;;9.80;103204.00;;;;5032265;28;20248;-72
2023/12/16 13:10:18;;;;;;;11.00;4.10;;;;;9.80;103198.00;;;;5033146;28;20667;-75
2023/12/16 13:13:04;;;;;;;10.27;3.30;;;;;9.80;103195.00;;;;5039834;28;20234;-73
2023/12/16 13:15:51;;;;;;;13.13;4.13;;;;;9.80;103192.00;;;;5036095;28;20635;-72
2023/12/16 13:18:45;;;;;;;10.83;4.57;;;;;9.80;103195.00;;;;5034943;28;20303;-73
2023/12/16 13:21:32;;;;;;;13.93;5.37;;;;;9.90;103188.00;;;;5041891;28;20232;-71
2023/12/16 13:24:18;;;;;;;5.93;3.57;;;;;9.90;103189.00;;;;5032274;28;20236;-71
2023/12/16 13:27:05;;;;;;;13.10;4.30;;;;;9.90;103184.00;;;;5035679;28;20287;-72
2023/12/16 13:29:51;;;;;;;14.53;4.10;;;;;9.90;103177.00;;;;5033099;28;20380;-73
2023/12/16 13:32:40;;;;;;;8.30;3.77;;;;;9.90;103183.00;;;;5038704;28;22524;-71
2023/12/16 13:35:27;;;;;;;8.83;3.33;;;;;9.90;103181.00;;;;5040706;28;20224;-71
2023/12/16 13:38:14;;;;;;;5.57;3.20;;;;;9.80;103190.00;;;;5031234;28;22483;-71
2023/12/16 13:41:00;;;;;;;17.27;3.60;;;;;9.80;103184.00;;;;5046542;28;20231;-72
2023/12/16 13:43:49;;;;;;;11.33;3.27;;;;;9.80;103184.00;;;;5038908;28;20925;-72
2023/12/16 13:46:36;;;;;;;13.33;3.70;;;;;9.80;103171.00;;;;5031411;28;20232;-71
2023/12/16 13:49:22;;;;;;;8.20;3.40;;;;;9.70;103167.00;;;;5026875;28;20228;-71
2023/12/16 13:52:11;;;;;;;11.57;3.83;;;;;9.70;103163.00;;;;5039836;28;20237;-72